createdAt,value
2018-12-24T00:00:44.882Z,5.90
2018-12-24T00:06:48.018Z,5.80
2018-12-24T00:09:49.324Z,5.70
2018-12-24T00:12:50.558Z,5.60
2018-12-24T00:15:51.487Z,5.80
2018-12-24T00:18:52.776Z,5.60
2018-12-24T00:21:53.853Z,5.70
2018-12-24T00:24:55.428Z,5.70
2018-12-24T00:27:56.099Z,5.70
2018-12-24T00:30:56.742Z,6.00
2018-12-24T00:33:57.929Z,5.90
2018-12-24T00:36:59.483Z,5.90
2018-12-24T00:40:00.764Z,5.90
2018-12-24T00:43:02.368Z,5.80
2018-12-24T00:46:03.817Z,5.70
2018-12-24T00:49:05.255Z,6.00
2018-12-24T00:52:06.805Z,5.70
2018-12-24T00:55:07.946Z,5.70
2018-12-24T00:58:07.478Z,5.90
2018-12-24T01:01:16.295Z,5.80
2018-12-24T01:04:17.400Z,5.80
2018-12-24T01:07:18.666Z,5.80
2018-12-24T01:10:19.904Z,5.80
2018-12-24T01:13:20.870Z,5.90
2018-12-24T01:16:22.101Z,6.00
2018-12-24T01:19:23.299Z,5.90
2018-12-24T01:22:13.912Z,5.90
2018-12-24T01:25:22.494Z,5.90
2018-12-24T01:28:23.392Z,6.20
2018-12-24T01:31:24.503Z,6.30
2018-12-24T01:34:25.925Z,5.90
2018-12-24T01:37:27.202Z,6.10
2018-12-24T01:40:28.417Z,6.20
2018-12-24T01:43:29.978Z,6.10
2018-12-24T01:46:30.714Z,6.00
2018-12-24T01:49:31.961Z,6.00
2018-12-24T01:52:32.980Z,6.20
2018-12-24T01:55:34.114Z,6.00
2018-12-24T01:58:35.686Z,5.80
2018-12-24T02:01:36.415Z,5.90
2018-12-24T02:04:37.800Z,5.80
2018-12-24T02:07:38.827Z,2.70
2018-12-24T02:10:39.718Z,5.90
2018-12-24T02:13:40.886Z,6.00
2018-12-24T02:16:42.073Z,5.70
2018-12-24T02:19:43.941Z,5.30
2018-12-24T02:22:46.336Z,5.70
2018-12-24T02:25:50.725Z,5.80
2018-12-24T02:28:51.736Z,5.70
2018-12-24T02:31:53.098Z,5.70
2018-12-24T02:34:52.748Z,5.70
2018-12-24T02:38:01.211Z,5.70
2018-12-24T02:41:02.896Z,5.60
2018-12-24T02:44:03.926Z,8.10
2018-12-24T02:47:05.126Z,5.70
2018-12-24T02:50:06.145Z,5.50
2018-12-24T02:53:07.828Z,5.10
2018-12-24T02:56:08.842Z,5.70
2018-12-24T02:59:10.166Z,3.70
2018-12-24T03:02:00.526Z,5.80
2018-12-24T03:04:51.629Z,5.70
2018-12-24T03:07:52.953Z,5.70
2018-12-24T03:10:54.531Z,5.80
2018-12-24T03:13:56.001Z,5.90
2018-12-24T03:16:56.726Z,5.60
2018-12-24T03:19:57.558Z,5.90
2018-12-24T03:22:58.594Z,5.70
2018-12-24T03:26:00.222Z,5.70
2018-12-24T03:29:01.254Z,5.80
2018-12-24T03:35:24.270Z,5.60
2018-12-24T03:38:25.545Z,5.50
2018-12-24T03:41:26.823Z,5.60
2018-12-24T03:44:28.098Z,5.30
2018-12-24T03:47:29.645Z,5.20
2018-12-24T03:50:30.744Z,5.00
2018-12-24T03:53:31.824Z,4.90
2018-12-24T03:56:32.959Z,4.80
2018-12-24T03:59:34.557Z,4.80
2018-12-24T04:02:35.444Z,5.00
2018-12-24T04:05:36.462Z,4.70
2018-12-24T04:08:37.654Z,5.00
2018-12-24T04:11:38.551Z,5.30
2018-12-24T04:14:40.166Z,5.50
2018-12-24T04:17:41.064Z,5.40
2018-12-24T04:20:41.726Z,5.40
2018-12-24T04:23:42.627Z,3.40
2018-12-24T04:26:43.844Z,4.80
2018-12-24T04:29:45.254Z,4.90
2018-12-24T04:32:46.299Z,5.20
2018-12-24T04:35:47.522Z,5.00
2018-12-24T04:38:48.343Z,5.30
2018-12-24T04:41:38.790Z,5.20
2018-12-24T04:44:47.348Z,5.00
2018-12-24T04:47:48.709Z,5.00
2018-12-24T04:50:50.151Z,5.00
2018-12-24T04:53:51.293Z,4.00
2018-12-24T04:56:52.635Z,5.20
2018-12-24T04:59:54.086Z,5.30
2018-12-24T05:02:54.934Z,4.90
2018-12-24T05:05:56.634Z,4.90
2018-12-24T05:08:57.861Z,4.90
2018-12-24T05:15:00.593Z,5.20
2018-12-24T05:18:02.110Z,5.40
2018-12-24T05:21:03.210Z,5.00
2018-12-24T05:24:04.946Z,5.00
2018-12-24T05:27:05.701Z,4.80
2018-12-24T05:30:07.161Z,5.00
2018-12-24T05:33:08.646Z,4.90
2018-12-24T05:36:10.009Z,4.70
2018-12-24T05:39:11.135Z,2.90
2018-12-24T05:42:12.554Z,2.60
2018-12-24T05:45:13.325Z,4.60
2018-12-24T05:48:14.005Z,4.40
2018-12-24T05:51:15.034Z,4.60
2018-12-24T05:54:16.331Z,4.30
2018-12-24T05:57:17.338Z,4.70
2018-12-24T06:00:19.037Z,4.20
2018-12-24T06:03:20.703Z,4.10
2018-12-24T06:06:22.044Z,4.30
2018-12-24T06:09:22.872Z,4.10
2018-12-24T06:12:24.356Z,4.10
2018-12-24T06:15:25.583Z,4.10
2018-12-24T06:18:27.154Z,4.10
2018-12-24T06:21:28.327Z,4.10
2018-12-24T06:24:29.481Z,4.10
2018-12-24T06:27:31.097Z,4.20
2018-12-24T06:30:31.835Z,4.20
2018-12-24T06:33:33.232Z,4.20
2018-12-24T06:36:34.429Z,4.60
2018-12-24T06:45:52.602Z,4.10
2018-12-24T06:48:53.739Z,4.20
2018-12-24T06:51:55.150Z,4.20
2018-12-24T06:54:56.418Z,4.00
2018-12-24T06:57:58.066Z,0.90
2018-12-24T07:00:58.913Z,3.90
2018-12-24T07:04:00.453Z,4.00
2018-12-24T07:07:01.097Z,4.00
2018-12-24T07:10:02.483Z,3.50
2018-12-24T07:13:03.754Z,3.40
2018-12-24T07:16:04.981Z,3.50
2018-12-24T07:19:06.345Z,3.30
2018-12-24T07:22:07.747Z,3.20
2018-12-24T07:25:09.351Z,3.30
2018-12-24T07:28:11.164Z,3.40
2018-12-24T07:31:12.775Z,3.30
2018-12-24T07:34:13.815Z,3.30
2018-12-24T07:37:15.677Z,3.30
2018-12-24T07:40:16.877Z,3.30
2018-12-24T07:43:17.706Z,3.30
2018-12-24T07:46:19.108Z,3.30
2018-12-24T07:49:20.408Z,3.30
2018-12-24T07:52:21.996Z,3.30
2018-12-24T07:55:22.744Z,0.00
2018-12-24T07:58:24.101Z,3.20
2018-12-24T08:01:13.655Z,3.30
2018-12-24T08:04:22.476Z,1.30
2018-12-24T08:07:23.302Z,3.20
2018-12-24T08:10:24.889Z,3.20
2018-12-24T08:13:26.298Z,3.30
2018-12-24T08:16:27.369Z,3.50
2018-12-24T08:19:28.267Z,3.30
2018-12-24T08:22:29.369Z,3.20
2018-12-24T08:25:30.975Z,3.40
2018-12-24T08:28:32.474Z,3.00
2018-12-24T08:31:33.897Z,3.30
2018-12-24T08:34:35.386Z,3.20
2018-12-24T08:37:36.542Z,3.50
2018-12-24T08:40:38.006Z,3.40
2018-12-24T08:43:49.091Z,3.40
2018-12-24T08:46:48.872Z,3.40
2018-12-24T08:49:57.561Z,3.10
2018-12-24T08:52:47.547Z,3.40
2018-12-24T08:55:56.161Z,3.10
2018-12-24T08:58:44.827Z,3.40
2018-12-24T09:01:46.345Z,3.20
2018-12-24T09:04:47.947Z,3.30
2018-12-24T09:07:49.419Z,3.10
2018-12-24T09:10:51.897Z,2.60
2018-12-24T09:13:52.793Z,3.20
2018-12-24T09:16:53.475Z,3.10
2018-12-24T09:19:58.004Z,3.50
2018-12-24T09:22:59.515Z,3.60
2018-12-24T09:26:00.774Z,3.50
2018-12-24T09:29:01.688Z,3.80
2018-12-24T09:32:03.149Z,4.00
2018-12-24T09:35:04.967Z,4.10
2018-12-24T09:41:05.822Z,4.00
2018-12-24T09:44:06.963Z,3.80
2018-12-24T09:46:56.355Z,3.60
2018-12-24T09:56:07.854Z,3.40
2018-12-24T09:59:09.006Z,3.30
2018-12-24T10:02:19.817Z,3.40
2018-12-24T10:05:21.190Z,3.50
2018-12-24T10:08:22.593Z,3.30
2018-12-24T10:11:23.624Z,3.60
2018-12-24T10:17:18.386Z,3.10
2018-12-24T10:23:47.014Z,3.00
2018-12-24T10:26:48.344Z,2.90
2018-12-24T10:29:50.266Z,2.80
2018-12-24T10:32:51.319Z,2.90
2018-12-24T10:35:52.871Z,3.00
2018-12-24T10:38:54.127Z,3.10
2018-12-24T10:41:55.562Z,2.80
2018-12-24T10:44:57.258Z,3.00
2018-12-24T10:47:58.009Z,3.50
2018-12-24T10:50:59.486Z,6.80
2018-12-24T10:54:01.208Z,10.80
2018-12-24T10:57:03.338Z,9.30
2018-12-24T11:00:04.105Z,12.40
2018-12-24T11:03:05.378Z,13.70
2018-12-24T11:06:07.119Z,13.80
2018-12-24T11:09:08.621Z,14.10
2018-12-24T11:12:12.633Z,12.90
2018-12-24T11:15:14.017Z,10.10
2018-12-24T11:18:15.330Z,8.70
2018-12-24T11:21:16.534Z,8.00
2018-12-24T11:24:18.015Z,7.10
2018-12-24T11:27:19.598Z,7.00
2018-12-24T11:30:20.413Z,6.00
2018-12-24T11:33:21.998Z,5.50
2018-12-24T11:36:27.905Z,5.20
2018-12-24T11:39:29.035Z,4.70
2018-12-24T11:42:30.156Z,5.30
2018-12-24T11:48:33.546Z,5.80
2018-12-24T11:51:42.034Z,5.80
2018-12-24T11:54:43.453Z,5.20
2018-12-24T11:57:44.571Z,4.80
2018-12-24T12:00:46.509Z,4.50
2018-12-24T12:03:47.163Z,4.20
2018-12-24T12:06:48.394Z,0.60
2018-12-24T12:09:49.392Z,3.70
2018-12-24T12:12:50.478Z,3.70
2018-12-24T12:15:52.010Z,2.10
2018-12-24T12:18:55.370Z,3.50
2018-12-24T12:21:56.697Z,3.90
2018-12-24T12:24:58.145Z,3.60
2018-12-24T12:31:21.613Z,3.70
2018-12-24T12:34:22.777Z,3.70
2018-12-24T12:37:24.243Z,3.70
2018-12-24T12:40:25.426Z,4.00
2018-12-24T12:43:26.885Z,3.80
2018-12-24T12:46:28.070Z,3.80
2018-12-24T12:49:29.395Z,3.90
2018-12-24T12:52:30.547Z,2.30
2018-12-24T12:55:31.881Z,4.20
2018-12-24T12:58:33.045Z,4.10
2018-12-24T13:01:33.844Z,2.20
2018-12-24T13:04:34.598Z,4.10
2018-12-24T13:07:35.989Z,4.10
2018-12-24T13:10:37.433Z,3.80
2018-12-24T13:13:38.823Z,3.70
2018-12-24T13:16:40.107Z,3.80
2018-12-24T13:19:41.358Z,4.10
2018-12-24T13:22:42.545Z,4.30
2018-12-24T13:25:43.585Z,4.30
2018-12-24T13:28:44.906Z,4.50
2018-12-24T13:31:46.258Z,4.30
2018-12-24T13:34:47.458Z,4.20
2018-12-24T13:37:48.666Z,4.30
2018-12-24T13:40:50.253Z,4.30
2018-12-24T13:43:51.465Z,4.10
2018-12-24T13:46:52.905Z,4.10
2018-12-24T13:49:59.337Z,4.30
2018-12-24T13:53:10.816Z,4.10
2018-12-24T13:56:12.285Z,4.10
2018-12-24T13:59:13.769Z,4.10
2018-12-24T14:02:16.499Z,3.90
2018-12-24T14:05:06.588Z,4.10
2018-12-24T14:11:15.287Z,3.60
2018-12-24T14:14:16.234Z,3.60
2018-12-24T14:17:55.010Z,2.30
2018-12-24T14:20:51.650Z,3.70
2018-12-24T14:23:59.897Z,3.60
2018-12-24T14:27:01.646Z,3.60
2018-12-24T14:30:03.452Z,3.50
2018-12-24T14:32:53.136Z,3.50
2018-12-24T14:36:01.508Z,3.50
2018-12-24T14:39:03.394Z,3.50
2018-12-24T14:41:54.487Z,3.40
2018-12-24T14:45:02.605Z,3.40
2018-12-24T14:48:03.382Z,3.30
2018-12-24T14:51:04.450Z,3.20
2018-12-24T14:54:05.816Z,3.20
2018-12-24T14:57:07.091Z,1.80
2018-12-24T14:59:57.146Z,3.10
2018-12-24T15:03:05.787Z,3.20
2018-12-24T15:06:06.934Z,3.20
2018-12-24T15:09:08.479Z,3.10
2018-12-24T15:12:13.416Z,3.00
2018-12-24T15:15:14.851Z,3.00
2018-12-24T15:18:15.718Z,2.90
2018-12-24T15:21:16.577Z,2.80
2018-12-24T15:24:17.307Z,2.90
2018-12-24T15:27:18.550Z,2.90
2018-12-24T15:30:21.897Z,3.20
2018-12-24T15:33:22.798Z,2.90
2018-12-24T15:36:23.940Z,2.90
2018-12-24T15:39:24.673Z,1.70
2018-12-24T15:42:25.499Z,2.80
2018-12-24T15:45:26.401Z,2.80
2018-12-24T15:48:17.857Z,2.80
2018-12-24T15:51:26.326Z,2.80
2018-12-24T15:54:27.060Z,2.70
2018-12-24T15:57:27.788Z,2.90
2018-12-24T16:03:36.949Z,2.60
2018-12-24T16:06:38.056Z,2.50
2018-12-24T16:09:39.497Z,2.50
2018-12-24T16:12:45.354Z,2.50
2018-12-24T16:15:46.545Z,2.40
2018-12-24T16:18:37.656Z,2.50
2018-12-24T16:21:46.141Z,2.50
2018-12-24T16:24:47.350Z,2.60
2018-12-24T16:27:47.985Z,2.70
2018-12-24T16:30:48.689Z,2.80
2018-12-24T16:36:46.211Z,3.00
2018-12-24T16:39:47.247Z,2.90
2018-12-24T16:42:48.053Z,3.00
2018-12-24T16:45:49.036Z,3.00
2018-12-24T16:48:49.611Z,2.80
2018-12-24T16:51:52.266Z,2.70
2018-12-24T16:54:53.207Z,2.90
2018-12-24T16:57:53.869Z,2.70
2018-12-24T17:00:54.292Z,2.60
2018-12-24T17:03:55.457Z,2.70
2018-12-24T17:06:56.539Z,2.60
2018-12-24T17:09:57.478Z,3.00
2018-12-24T17:12:58.982Z,2.70
2018-12-24T17:16:00.106Z,2.90
2018-12-24T17:18:49.605Z,2.80
2018-12-24T17:21:57.762Z,2.90
2018-12-24T17:24:58.939Z,2.90
2018-12-24T17:27:59.503Z,3.10
2018-12-24T17:30:49.964Z,3.00
2018-12-24T17:33:58.112Z,3.00
2018-12-24T17:36:59.545Z,3.00
2018-12-24T17:40:00.705Z,3.10
2018-12-24T17:43:01.631Z,3.10
2018-12-24T17:46:02.767Z,3.20
2018-12-24T17:49:06.504Z,3.10
2018-12-24T17:52:09.027Z,3.50
2018-12-24T17:55:08.796Z,3.50
2018-12-24T17:58:13.254Z,3.20
2018-12-24T18:01:15.069Z,3.30
2018-12-24T18:04:04.038Z,3.20
2018-12-24T18:06:53.121Z,3.30
2018-12-24T18:09:52.675Z,3.30
2018-12-24T18:12:55.106Z,3.30
2018-12-24T18:15:59.339Z,3.30
2018-12-24T18:19:00.737Z,2.60
2018-12-24T18:24:57.852Z,3.20
2018-12-24T18:28:00.634Z,3.30
2018-12-24T18:30:51.657Z,3.50
2018-12-24T18:33:59.991Z,3.50
2018-12-24T18:37:00.974Z,3.60
2018-12-24T18:39:51.291Z,3.60
2018-12-24T18:42:59.713Z,3.70
2018-12-24T18:46:00.634Z,2.50
2018-12-24T18:49:01.473Z,3.70
2018-12-24T18:52:02.519Z,4.00
2018-12-24T18:55:03.447Z,4.20
2018-12-24T18:58:04.382Z,3.90
2018-12-24T19:01:04.977Z,3.70
2018-12-24T19:04:05.505Z,3.80
2018-12-24T19:07:06.406Z,3.80
2018-12-24T19:10:07.776Z,3.60
2018-12-24T19:13:08.492Z,3.60
2018-12-24T19:16:09.000Z,3.70
2018-12-24T19:19:09.762Z,3.70
2018-12-24T19:22:10.951Z,3.90
2018-12-24T19:25:11.726Z,3.80
2018-12-24T19:28:12.525Z,3.80
2018-12-24T19:31:13.115Z,4.00
2018-12-24T19:34:14.416Z,3.90
2018-12-24T19:37:15.092Z,3.90
2018-12-24T19:43:17.410Z,4.20
2018-12-24T19:46:18.058Z,4.00
2018-12-24T19:49:18.680Z,4.10
2018-12-24T19:52:19.183Z,4.00
2018-12-24T19:55:20.281Z,4.20
2018-12-24T19:58:09.775Z,4.10
2018-12-24T20:00:59.942Z,4.00
2018-12-24T20:04:01.399Z,4.10
2018-12-24T20:07:02.355Z,4.10
2018-12-24T20:10:03.473Z,4.10
2018-12-24T20:13:04.199Z,4.30
2018-12-24T20:16:05.201Z,4.30
2018-12-24T20:19:05.601Z,7.00
2018-12-24T20:22:06.553Z,4.00
2018-12-24T20:25:07.705Z,4.30
2018-12-24T20:31:40.502Z,4.10
2018-12-24T20:35:08.185Z,4.00
2018-12-24T20:38:09.182Z,4.00
2018-12-24T20:41:10.157Z,4.10
2018-12-24T20:44:11.287Z,4.00
2018-12-24T20:47:11.921Z,4.00
2018-12-24T20:50:12.919Z,4.10
2018-12-24T20:53:14.194Z,4.10
2018-12-24T20:56:15.110Z,4.10
2018-12-24T20:59:16.098Z,4.20
2018-12-24T21:02:19.466Z,4.10
2018-12-24T21:05:20.487Z,4.40
2018-12-24T21:08:21.606Z,4.00
2018-12-24T21:11:22.734Z,4.10
2018-12-24T21:14:24.017Z,4.10
2018-12-24T21:17:25.352Z,4.10
2018-12-24T21:20:26.303Z,4.20
2018-12-24T21:23:15.866Z,4.10
2018-12-24T21:26:24.054Z,4.20
2018-12-24T21:29:25.849Z,4.20
2018-12-24T21:32:26.509Z,4.30
2018-12-24T21:35:27.203Z,4.20
2018-12-24T21:38:28.176Z,4.20
2018-12-24T21:41:29.659Z,4.60
2018-12-24T21:44:30.645Z,4.20
2018-12-24T21:47:35.573Z,4.20
2018-12-24T21:50:36.124Z,4.20
2018-12-24T21:53:36.923Z,4.40
2018-12-24T21:56:38.992Z,4.20
2018-12-24T21:59:47.268Z,4.20
2018-12-24T22:02:55.431Z,4.10
2018-12-24T22:05:44.482Z,4.10
2018-12-24T22:08:52.734Z,4.10
2018-12-24T22:11:55.522Z,4.10
2018-12-24T22:14:56.577Z,4.20
2018-12-24T22:17:58.123Z,4.20
2018-12-24T22:20:59.613Z,4.20
2018-12-24T22:24:00.157Z,4.20
2018-12-24T22:27:01.123Z,4.10
2018-12-24T22:30:02.389Z,3.90
2018-12-24T22:33:03.700Z,4.20
2018-12-24T22:36:04.779Z,3.80
2018-12-24T22:39:05.587Z,3.70
2018-12-24T22:42:06.717Z,3.70
2018-12-24T22:45:07.405Z,3.60
2018-12-24T22:48:08.122Z,3.60
2018-12-24T22:53:57.921Z,3.40
2018-12-24T22:57:06.381Z,3.40
2018-12-24T23:00:07.489Z,3.60
2018-12-24T23:03:08.226Z,3.30
2018-12-24T23:06:09.159Z,3.50
2018-12-24T23:09:10.201Z,3.30
2018-12-24T23:12:10.765Z,3.30
2018-12-24T23:15:12.014Z,3.40
2018-12-24T23:18:13.473Z,3.50
2018-12-24T23:21:02.680Z,3.60
2018-12-24T23:24:11.664Z,3.60
2018-12-24T23:27:12.701Z,3.70
2018-12-24T23:30:13.880Z,3.70
2018-12-24T23:33:15.224Z,2.10
2018-12-24T23:36:16.421Z,2.10
2018-12-24T23:39:17.934Z,3.50
2018-12-24T23:42:18.485Z,3.60
2018-12-24T23:45:19.134Z,3.30
2018-12-24T23:48:20.033Z,2.10
2018-12-24T23:51:20.997Z,3.40
2018-12-24T23:54:21.752Z,3.40
2018-12-24T23:57:22.215Z,3.20
